sensor_id;sensor_type;location;lat;lon;timestamp;P1;durP1;ratioP1;P2;durP2;ratioP2
84662;SDS011;74891;59.208;18.220;2024-02-16T00:01:37;87.68;;;10.48;;
84662;SDS011;74891;59.208;18.220;2024-02-16T00:04:03;74.80;;;9.57;;
84662;SDS011;74891;59.208;18.220;2024-02-16T00:06:34;97.07;;;11.63;;
84662;SDS011;74891;59.208;18.220;2024-02-16T00:09:20;62.92;;;11.15;;
84662;SDS011;74891;59.208;18.220;2024-02-16T00:14:20;51.00;;;8.60;;
84662;SDS011;74891;59.208;18.220;2024-02-16T00:16:57;60.45;;;9.73;;
84662;SDS011;74891;59.208;18.220;2024-02-16T00:19:25;48.47;;;8.02;;
84662;SDS011;74891;59.208;18.220;2024-02-16T00:21:57;94.53;;;12.57;;
84662;SDS011;74891;59.208;18.220;2024-02-16T00:24:36;55.22;;;9.30;;
84662;SDS011;74891;59.208;18.220;2024-02-16T00:27:04;74.00;;;9.57;;
84662;SDS011;74891;59.208;18.220;2024-02-16T00:30:18;64.45;;;9.45;;
84662;SDS011;74891;59.208;18.220;2024-02-16T00:33:11;57.63;;;8.77;;
84662;SDS011;74891;59.208;18.220;2024-02-16T00:35:43;56.60;;;6.72;;
84662;SDS011;74891;59.208;18.220;2024-02-16T00:38:20;80.80;;;10.00;;
84662;SDS011;74891;59.208;18.220;2024-02-16T00:40:45;81.65;;;12.35;;
84662;SDS011;74891;59.208;18.220;2024-02-16T00:43:10;108.72;;;12.55;;
84662;SDS011;74891;59.208;18.220;2024-02-16T00:45:39;68.80;;;9.32;;
84662;SDS011;74891;59.208;18.220;2024-02-16T00:48:06;56.88;;;8.63;;
84662;SDS011;74891;59.208;18.220;2024-02-16T00:50:37;65.90;;;9.90;;
84662;SDS011;74891;59.208;18.220;2024-02-16T00:53:19;49.97;;;8.13;;
84662;SDS011;74891;59.208;18.220;2024-02-16T00:58:33;78.18;;;10.18;;
84662;SDS011;74891;59.208;18.220;2024-02-16T01:01:03;89.95;;;10.70;;
84662;SDS011;74891;59.208;18.220;2024-02-16T01:03:39;52.95;;;8.68;;
84662;SDS011;74891;59.208;18.220;2024-02-16T01:06:09;67.57;;;9.88;;
84662;SDS011;74891;59.208;18.220;2024-02-16T01:08:40;92.50;;;11.90;;
84662;SDS011;74891;59.208;18.220;2024-02-16T01:11:08;69.53;;;10.77;;
84662;SDS011;74891;59.208;18.220;2024-02-16T01:13:43;45.10;;;9.25;;
84662;SDS011;74891;59.208;18.220;2024-02-16T01:16:11;55.83;;;9.38;;
84662;SDS011;74891;59.208;18.220;2024-02-16T01:18:42;53.30;;;8.30;;
84662;SDS011;74891;59.208;18.220;2024-02-16T01:21:13;55.40;;;11.13;;
84662;SDS011;74891;59.208;18.220;2024-02-16T01:23:39;93.93;;;14.30;;
84662;SDS011;74891;59.208;18.220;2024-02-16T01:26:07;53.35;;;9.55;;
84662;SDS011;74891;59.208;18.220;2024-02-16T01:28:43;34.60;;;7.90;;
84662;SDS011;74891;59.208;18.220;2024-02-16T01:31:23;47.88;;;8.70;;
84662;SDS011;74891;59.208;18.220;2024-02-16T01:37:01;52.83;;;8.88;;
84662;SDS011;74891;59.208;18.220;2024-02-16T01:39:37;44.55;;;8.50;;
84662;SDS011;74891;59.208;18.220;2024-02-16T01:42:14;51.95;;;9.02;;
84662;SDS011;74891;59.208;18.220;2024-02-16T01:44:51;43.90;;;10.07;;
84662;SDS011;74891;59.208;18.220;2024-02-16T01:47:19;55.78;;;9.88;;
84662;SDS011;74891;59.208;18.220;2024-02-16T01:49:47;32.63;;;7.85;;
84662;SDS011;74891;59.208;18.220;2024-02-16T01:52:13;43.35;;;8.13;;
84662;SDS011;74891;59.208;18.220;2024-02-16T01:57:15;48.97;;;9.75;;
84662;SDS011;74891;59.208;18.220;2024-02-16T01:59:41;38.65;;;8.13;;
84662;SDS011;74891;59.208;18.220;2024-02-16T02:02:07;51.33;;;9.30;;
84662;SDS011;74891;59.208;18.220;2024-02-16T02:07:33;43.05;;;8.18;;
84662;SDS011;74891;59.208;18.220;2024-02-16T02:10:03;45.22;;;9.40;;
84662;SDS011;74891;59.208;18.220;2024-02-16T02:12:54;38.97;;;8.45;;
84662;SDS011;74891;59.208;18.220;2024-02-16T02:15:19;53.78;;;8.57;;
84662;SDS011;74891;59.208;18.220;2024-02-16T02:17:45;38.75;;;8.98;;
84662;SDS011;74891;59.208;18.220;2024-02-16T02:20:11;31.25;;;7.35;;
84662;SDS011;74891;59.208;18.220;2024-02-16T02:22:39;46.03;;;8.00;;
84662;SDS011;74891;59.208;18.220;2024-02-16T02:27:42;25.55;;;6.28;;
84662;SDS011;74891;59.208;18.220;2024-02-16T02:30:10;35.30;;;7.90;;
84662;SDS011;74891;59.208;18.220;2024-02-16T02:32:36;29.00;;;8.05;;
84662;SDS011;74891;59.208;18.220;2024-02-16T02:35:10;24.60;;;7.47;;
84662;SDS011;74891;59.208;18.220;2024-02-16T02:40:08;18.90;;;6.07;;
84662;SDS011;74891;59.208;18.220;2024-02-16T02:42:34;30.00;;;7.03;;
84662;SDS011;74891;59.208;18.220;2024-02-16T02:45:09;31.83;;;7.45;;
84662;SDS011;74891;59.208;18.220;2024-02-16T02:47:38;32.08;;;6.47;;
84662;SDS011;74891;59.208;18.220;2024-02-16T02:50:06;27.65;;;6.68;;
84662;SDS011;74891;59.208;18.220;2024-02-16T02:52:34;25.38;;;6.38;;
84662;SDS011;74891;59.208;18.220;2024-02-16T02:55:03;21.35;;;6.95;;
84662;SDS011;74891;59.208;18.220;2024-02-16T02:57:39;26.58;;;6.90;;
84662;SDS011;74891;59.208;18.220;2024-02-16T03:05:21;22.92;;;6.13;;
84662;SDS011;74891;59.208;18.220;2024-02-16T03:07:46;18.05;;;5.65;;
84662;SDS011;74891;59.208;18.220;2024-02-16T03:10:18;19.95;;;6.43;;
84662;SDS011;74891;59.208;18.220;2024-02-16T03:12:48;20.48;;;6.25;;
84662;SDS011;74891;59.208;18.220;2024-02-16T03:15:20;25.55;;;5.78;;
84662;SDS011;74891;59.208;18.220;2024-02-16T03:17:48;16.80;;;6.22;;
84662;SDS011;74891;59.208;18.220;2024-02-16T03:20:23;29.38;;;5.60;;
84662;SDS011;74891;59.208;18.220;2024-02-16T03:22:51;23.63;;;6.13;;
84662;SDS011;74891;59.208;18.220;2024-02-16T03:25:20;16.33;;;6.30;;
84662;SDS011;74891;59.208;18.220;2024-02-16T03:27:48;18.17;;;5.93;;
84662;SDS011;74891;59.208;18.220;2024-02-16T03:30:14;13.20;;;5.50;;
84662;SDS011;74891;59.208;18.220;2024-02-16T03:32:40;15.15;;;5.10;;
84662;SDS011;74891;59.208;18.220;2024-02-16T03:35:25;24.50;;;5.50;;
84662;SDS011;74891;59.208;18.220;2024-02-16T03:37:57;15.32;;;5.72;;
84662;SDS011;74891;59.208;18.220;2024-02-16T03:40:35;16.33;;;4.75;;
84662;SDS011;74891;59.208;18.220;2024-02-16T03:43:04;14.43;;;5.03;;
84662;SDS011;74891;59.208;18.220;2024-02-16T03:45:37;17.60;;;5.20;;
84662;SDS011;74891;59.208;18.220;2024-02-16T03:48:08;12.20;;;4.55;;
84662;SDS011;74891;59.208;18.220;2024-02-16T03:50:43;8.80;;;4.00;;
84662;SDS011;74891;59.208;18.220;2024-02-16T03:53:14;15.57;;;5.30;;
84662;SDS011;74891;59.208;18.220;2024-02-16T03:55:42;12.98;;;4.82;;
84662;SDS011;74891;59.208;18.220;2024-02-16T03:58:23;9.20;;;4.50;;
84662;SDS011;74891;59.208;18.220;2024-02-16T04:00:49;10.63;;;3.97;;
84662;SDS011;74891;59.208;18.220;2024-02-16T04:03:15;9.82;;;4.05;;
84662;SDS011;74891;59.208;18.220;2024-02-16T04:05:53;11.68;;;3.92;;
84662;SDS011;74891;59.208;18.220;2024-02-16T04:08:36;10.38;;;4.45;;
84662;SDS011;74891;59.208;18.220;2024-02-16T04:11:01;10.55;;;5.20;;
84662;SDS011;74891;59.208;18.220;2024-02-16T04:13:30;9.05;;;4.10;;
84662;SDS011;74891;59.208;18.220;2024-02-16T04:16:03;8.40;;;4.05;;
84662;SDS011;74891;59.208;18.220;2024-02-16T04:18:37;9.57;;;4.40;;
84662;SDS011;74891;59.208;18.220;2024-02-16T04:21:05;8.27;;;3.28;;
84662;SDS011;74891;59.208;18.220;2024-02-16T04:23:30;8.07;;;3.70;;
84662;SDS011;74891;59.208;18.220;2024-02-16T04:26:04;6.57;;;3.20;;
84662;SDS011;74891;59.208;18.220;2024-02-16T04:28:35;7.65;;;3.40;;
84662;SDS011;74891;59.208;18.220;2024-02-16T04:31:10;6.57;;;3.00;;
84662;SDS011;74891;59.208;18.220;2024-02-16T04:33:38;5.93;;;2.90;;
84662;SDS011;74891;59.208;18.220;2024-02-16T04:36:07;6.38;;;3.00;;
84662;SDS011;74891;59.208;18.220;2024-02-16T04:38:33;5.70;;;3.20;;
84662;SDS011;74891;59.208;18.220;2024-02-16T04:41:04;5.15;;;3.00;;
84662;SDS011;74891;59.208;18.220;2024-02-16T04:43:36;4.05;;;2.47;;
84662;SDS011;74891;59.208;18.220;2024-02-16T04:46:04;5.43;;;2.75;;
84662;SDS011;74891;59.208;18.220;2024-02-16T04:48:36;5.95;;;2.97;;
84662;SDS011;74891;59.208;18.220;2024-02-16T04:51:06;4.85;;;2.70;;
84662;SDS011;74891;59.208;18.220;2024-02-16T04:53:35;7.43;;;3.33;;
84662;SDS011;74891;59.208;18.220;2024-02-16T04:56:04;4.72;;;2.92;;
84662;SDS011;74891;59.208;18.220;2024-02-16T04:58:39;7.20;;;3.75;;
84662;SDS011;74891;59.208;18.220;2024-02-16T05:01:06;5.03;;;3.17;;
84662;SDS011;74891;59.208;18.220;2024-02-16T05:03:35;4.97;;;2.70;;
84662;SDS011;74891;59.208;18.220;2024-02-16T05:08:34;3.83;;;2.60;;
84662;SDS011;74891;59.208;18.220;2024-02-16T05:11:06;6.68;;;2.95;;
84662;SDS011;74891;59.208;18.220;2024-02-16T05:13:35;4.38;;;2.78;;
84662;SDS011;74891;59.208;18.220;2024-02-16T05:16:07;3.83;;;2.42;;
84662;SDS011;74891;59.208;18.220;2024-02-16T05:18:38;4.72;;;2.97;;
84662;SDS011;74891;59.208;18.220;2024-02-16T05:21:07;5.22;;;3.13;;
84662;SDS011;74891;59.208;18.220;2024-02-16T05:23:34;6.40;;;2.50;;
84662;SDS011;74891;59.208;18.220;2024-02-16T05:26:09;3.72;;;2.55;;
84662;SDS011;74891;59.208;18.220;2024-02-16T05:28:37;2.70;;;2.00;;
84662;SDS011;74891;59.208;18.220;2024-02-16T05:31:14;5.43;;;2.25;;
84662;SDS011;74891;59.208;18.220;2024-02-16T05:33:59;3.55;;;2.22;;
84662;SDS011;74891;59.208;18.220;2024-02-16T05:36:44;3.35;;;2.38;;
84662;SDS011;74891;59.208;18.220;2024-02-16T05:39:12;3.58;;;2.42;;
84662;SDS011;74891;59.208;18.220;2024-02-16T05:42:00;3.30;;;1.90;;
84662;SDS011;74891;59.208;18.220;2024-02-16T05:44:29;3.78;;;2.10;;
84662;SDS011;74891;59.208;18.220;2024-02-16T05:49:32;3.20;;;2.15;;
84662;SDS011;74891;59.208;18.220;2024-02-16T05:52:11;3.42;;;2.17;;
84662;SDS011;74891;59.208;18.220;2024-02-16T05:54:52;3.25;;;2.20;;
84662;SDS011;74891;59.208;18.220;2024-02-16T05:57:25;2.03;;;1.80;;
84662;SDS011;74891;59.208;18.220;2024-02-16T05:59:51;3.50;;;1.83;;
84662;SDS011;74891;59.208;18.220;2024-02-16T06:02:28;2.97;;;1.83;;
84662;SDS011;74891;59.208;18.220;2024-02-16T06:08:18;2.30;;;1.60;;
84662;SDS011;74891;59.208;18.220;2024-02-16T06:10:44;2.10;;;1.50;;
84662;SDS011;74891;59.208;18.220;2024-02-16T06:13:21;2.03;;;1.40;;
84662;SDS011;74891;59.208;18.220;2024-02-16T06:18:41;1.92;;;1.42;;
84662;SDS011;74891;59.208;18.220;2024-02-16T06:21:12;2.10;;;1.25;;
84662;SDS011;74891;59.208;18.220;2024-02-16T06:23:38;2.80;;;1.40;;
84662;SDS011;74891;59.208;18.220;2024-02-16T06:26:13;2.63;;;1.60;;
84662;SDS011;74891;59.208;18.220;2024-02-16T06:28:55;2.80;;;1.55;;
84662;SDS011;74891;59.208;18.220;2024-02-16T06:31:54;3.25;;;1.38;;
84662;SDS011;74891;59.208;18.220;2024-02-16T06:34:21;2.28;;;1.50;;
84662;SDS011;74891;59.208;18.220;2024-02-16T06:36:50;2.17;;;1.20;;
84662;SDS011;74891;59.208;18.220;2024-02-16T06:39:22;4.72;;;1.30;;
84662;SDS011;74891;59.208;18.220;2024-02-16T06:44:42;1.38;;;1.13;;
84662;SDS011;74891;59.208;18.220;2024-02-16T06:47:29;1.73;;;1.02;;
84662;SDS011;74891;59.208;18.220;2024-02-16T06:50:02;2.15;;;1.15;;
84662;SDS011;74891;59.208;18.220;2024-02-16T06:52:38;1.58;;;1.08;;
84662;SDS011;74891;59.208;18.220;2024-02-16T06:55:13;1.35;;;1.10;;
84662;SDS011;74891;59.208;18.220;2024-02-16T06:57:39;1.63;;;1.13;;
84662;SDS011;74891;59.208;18.220;2024-02-16T07:00:09;1.88;;;1.40;;
84662;SDS011;74891;59.208;18.220;2024-02-16T07:02:51;1.75;;;1.20;;
84662;SDS011;74891;59.208;18.220;2024-02-16T07:05:19;1.52;;;1.05;;
84662;SDS011;74891;59.208;18.220;2024-02-16T07:07:47;1.50;;;1.25;;
84662;SDS011;74891;59.208;18.220;2024-02-16T07:10:16;2.55;;;1.23;;
84662;SDS011;74891;59.208;18.220;2024-02-16T07:12:48;1.85;;;1.40;;
84662;SDS011;74891;59.208;18.220;2024-02-16T07:15:21;2.17;;;1.27;;
84662;SDS011;74891;59.208;18.220;2024-02-16T07:17:52;2.25;;;1.30;;
84662;SDS011;74891;59.208;18.220;2024-02-16T07:20:56;2.55;;;1.08;;
84662;SDS011;74891;59.208;18.220;2024-02-16T07:23:25;2.17;;;1.40;;
84662;SDS011;74891;59.208;18.220;2024-02-16T07:26:14;1.70;;;1.10;;
84662;SDS011;74891;59.208;18.220;2024-02-16T07:28:42;2.35;;;1.33;;
84662;SDS011;74891;59.208;18.220;2024-02-16T07:31:10;1.92;;;1.20;;
84662;SDS011;74891;59.208;18.220;2024-02-16T07:33:36;1.20;;;1.10;;
84662;SDS011;74891;59.208;18.220;2024-02-16T07:36:07;2.22;;;1.50;;
84662;SDS011;74891;59.208;18.220;2024-02-16T07:38:35;1.70;;;1.20;;
84662;SDS011;74891;59.208;18.220;2024-02-16T07:41:01;1.77;;;1.00;;
84662;SDS011;74891;59.208;18.220;2024-02-16T07:43:34;1.27;;;1.13;;
84662;SDS011;74891;59.208;18.220;2024-02-16T07:48:48;1.45;;;1.05;;
84662;SDS011;74891;59.208;18.220;2024-02-16T07:51:17;2.53;;;1.10;;
84662;SDS011;74891;59.208;18.220;2024-02-16T07:53:42;2.97;;;1.10;;
84662;SDS011;74891;59.208;18.220;2024-02-16T07:56:12;1.48;;;1.00;;
84662;SDS011;74891;59.208;18.220;2024-02-16T07:58:38;2.78;;;1.20;;
84662;SDS011;74891;59.208;18.220;2024-02-16T08:01:30;1.45;;;1.00;;
84662;SDS011;74891;59.208;18.220;2024-02-16T08:04:04;1.55;;;1.00;;
84662;SDS011;74891;59.208;18.220;2024-02-16T08:06:41;2.17;;;1.10;;
84662;SDS011;74891;59.208;18.220;2024-02-16T08:09:06;1.38;;;1.00;;
84662;SDS011;74891;59.208;18.220;2024-02-16T08:11:53;2.00;;;1.30;;
84662;SDS011;74891;59.208;18.220;2024-02-16T08:14:37;2.10;;;1.40;;
84662;SDS011;74891;59.208;18.220;2024-02-16T08:17:13;2.30;;;1.13;;
84662;SDS011;74891;59.208;18.220;2024-02-16T08:19:38;1.88;;;1.00;;
84662;SDS011;74891;59.208;18.220;2024-02-16T08:22:21;1.30;;;1.00;;
84662;SDS011;74891;59.208;18.220;2024-02-16T08:24:49;0.90;;;0.70;;
84662;SDS011;74891;59.208;18.220;2024-02-16T08:27:18;1.50;;;0.90;;
84662;SDS011;74891;59.208;18.220;2024-02-16T08:29:46;0.80;;;0.80;;
84662;SDS011;74891;59.208;18.220;2024-02-16T08:32:17;1.08;;;0.90;;
84662;SDS011;74891;59.208;18.220;2024-02-16T08:34:46;1.35;;;1.08;;
84662;SDS011;74891;59.208;18.220;2024-02-16T08:43:17;1.00;;;0.85;;
84662;SDS011;74891;59.208;18.220;2024-02-16T08:48:10;1.30;;;0.80;;
84662;SDS011;74891;59.208;18.220;2024-02-16T08:50:36;1.42;;;0.80;;
84662;SDS011;74891;59.208;18.220;2024-02-16T08:53:07;1.10;;;0.90;;
84662;SDS011;74891;59.208;18.220;2024-02-16T08:55:38;1.08;;;0.80;;
84662;SDS011;74891;59.208;18.220;2024-02-16T08:58:09;0.63;;;0.32;;
84662;SDS011;74891;59.208;18.220;2024-02-16T09:00:50;1.13;;;0.88;;
84662;SDS011;74891;59.208;18.220;2024-02-16T09:03:18;0.70;;;0.68;;
84662;SDS011;74891;59.208;18.220;2024-02-16T09:05:46;1.63;;;0.70;;
84662;SDS011;74891;59.208;18.220;2024-02-16T09:08:12;1.00;;;0.70;;
84662;SDS011;74891;59.208;18.220;2024-02-16T09:10:38;0.50;;;0.47;;
84662;SDS011;74891;59.208;18.220;2024-02-16T09:13:09;0.80;;;0.60;;
84662;SDS011;74891;59.208;18.220;2024-02-16T09:15:38;0.52;;;0.40;;
84662;SDS011;74891;59.208;18.220;2024-02-16T09:18:06;0.80;;;0.70;;
84662;SDS011;74891;59.208;18.220;2024-02-16T09:20:40;0.70;;;0.50;;
84662;SDS011;74891;59.208;18.220;2024-02-16T09:23:07;0.95;;;0.60;;
84662;SDS011;74891;59.208;18.220;2024-02-16T09:25:34;0.65;;;0.55;;
84662;SDS011;74891;59.208;18.220;2024-02-16T09:28:03;1.20;;;0.70;;
84662;SDS011;74891;59.208;18.220;2024-02-16T09:30:38;1.35;;;0.60;;
84662;SDS011;74891;59.208;18.220;2024-02-16T09:33:04;1.63;;;0.70;;
84662;SDS011;74891;59.208;18.220;2024-02-16T09:35:35;0.60;;;0.60;;
84662;SDS011;74891;59.208;18.220;2024-02-16T09:38:03;1.15;;;0.70;;
84662;SDS011;74891;59.208;18.220;2024-02-16T09:40:34;1.17;;;0.73;;
84662;SDS011;74891;59.208;18.220;2024-02-16T09:43:08;1.10;;;0.70;;
84662;SDS011;74891;59.208;18.220;2024-02-16T09:45:34;1.17;;;0.80;;
84662;SDS011;74891;59.208;18.220;2024-02-16T09:48:01;0.80;;;0.60;;
84662;SDS011;74891;59.208;18.220;2024-02-16T09:50:32;1.30;;;0.93;;
84662;SDS011;74891;59.208;18.220;2024-02-16T09:53:05;1.73;;;0.82;;
84662;SDS011;74891;59.208;18.220;2024-02-16T09:55:32;1.52;;;0.95;;
84662;SDS011;74891;59.208;18.220;2024-02-16T09:58:07;1.63;;;0.80;;
84662;SDS011;74891;59.208;18.220;2024-02-16T10:00:38;2.05;;;1.10;;
84662;SDS011;74891;59.208;18.220;2024-02-16T10:03:20;2.05;;;1.13;;
84662;SDS011;74891;59.208;18.220;2024-02-16T10:09:21;1.42;;;0.90;;
84662;SDS011;74891;59.208;18.220;2024-02-16T10:11:48;2.08;;;1.38;;
84662;SDS011;74891;59.208;18.220;2024-02-16T10:14:14;1.15;;;0.90;;
84662;SDS011;74891;59.208;18.220;2024-02-16T10:16:39;1.02;;;0.93;;
84662;SDS011;74891;59.208;18.220;2024-02-16T10:19:08;1.27;;;0.82;;
84662;SDS011;74891;59.208;18.220;2024-02-16T10:21:36;1.63;;;1.17;;
84662;SDS011;74891;59.208;18.220;2024-02-16T10:24:13;3.78;;;0.80;;
84662;SDS011;74891;59.208;18.220;2024-02-16T10:26:46;1.90;;;0.80;;
84662;SDS011;74891;59.208;18.220;2024-02-16T10:29:16;1.65;;;0.93;;
84662;SDS011;74891;59.208;18.220;2024-02-16T10:31:49;2.40;;;1.30;;
84662;SDS011;74891;59.208;18.220;2024-02-16T10:34:21;1.73;;;1.00;;
84662;SDS011;74891;59.208;18.220;2024-02-16T10:37:01;1.15;;;0.90;;
84662;SDS011;74891;59.208;18.220;2024-02-16T10:39:36;1.27;;;0.80;;
84662;SDS011;74891;59.208;18.220;2024-02-16T10:42:04;0.93;;;0.80;;
84662;SDS011;74891;59.208;18.220;2024-02-16T10:44:37;1.15;;;0.80;;
84662;SDS011;74891;59.208;18.220;2024-02-16T10:47:07;1.77;;;1.10;;
84662;SDS011;74891;59.208;18.220;2024-02-16T10:49:37;1.40;;;0.80;;
84662;SDS011;74891;59.208;18.220;2024-02-16T10:54:51;1.30;;;0.90;;
84662;SDS011;74891;59.208;18.220;2024-02-16T10:57:22;1.45;;;0.82;;
84662;SDS011;74891;59.208;18.220;2024-02-16T10:59:56;1.08;;;0.70;;
84662;SDS011;74891;59.208;18.220;2024-02-16T11:02:29;1.80;;;0.70;;
84662;SDS011;74891;59.208;18.220;2024-02-16T11:22:18;1.50;;;0.85;;
84662;SDS011;74891;59.208;18.220;2024-02-16T11:24:58;4.90;;;1.10;;
84662;SDS011;74891;59.208;18.220;2024-02-16T11:30:10;1.95;;;1.05;;
84662;SDS011;74891;59.208;18.220;2024-02-16T11:32:38;2.15;;;1.35;;
84662;SDS011;74891;59.208;18.220;2024-02-16T11:35:11;1.65;;;1.10;;
84662;SDS011;74891;59.208;18.220;2024-02-16T11:37:39;1.60;;;1.00;;
84662;SDS011;74891;59.208;18.220;2024-02-16T11:45:35;0.90;;;0.70;;
84662;SDS011;74891;59.208;18.220;2024-02-16T11:48:07;2.92;;;1.20;;
84662;SDS011;74891;59.208;18.220;2024-02-16T11:50:35;2.90;;;1.30;;
84662;SDS011;74891;59.208;18.220;2024-02-16T11:53:22;1.52;;;1.02;;
84662;SDS011;74891;59.208;18.220;2024-02-16T11:55:48;1.88;;;1.20;;
84662;SDS011;74891;59.208;18.220;2024-02-16T11:58:18;4.47;;;1.23;;
84662;SDS011;74891;59.208;18.220;2024-02-16T12:00:44;2.35;;;1.40;;
84662;SDS011;74891;59.208;18.220;2024-02-16T12:03:17;2.72;;;1.27;;
84662;SDS011;74891;59.208;18.220;2024-02-16T12:05:49;2.42;;;1.50;;
84662;SDS011;74891;59.208;18.220;2024-02-16T12:08:35;1.90;;;1.02;;
84662;SDS011;74891;59.208;18.220;2024-02-16T12:11:10;1.90;;;1.20;;
84662;SDS011;74891;59.208;18.220;2024-02-16T12:13:39;1.70;;;0.95;;
84662;SDS011;74891;59.208;18.220;2024-02-16T12:16:08;1.23;;;0.80;;
84662;SDS011;74891;59.208;18.220;2024-02-16T12:18:36;1.42;;;0.98;;
84662;SDS011;74891;59.208;18.220;2024-02-16T12:21:06;1.63;;;1.08;;
84662;SDS011;74891;59.208;18.220;2024-02-16T12:23:38;2.65;;;1.10;;
84662;SDS011;74891;59.208;18.220;2024-02-16T12:26:12;1.17;;;0.80;;
84662;SDS011;74891;59.208;18.220;2024-02-16T12:28:40;1.38;;;0.98;;
84662;SDS011;74891;59.208;18.220;2024-02-16T12:31:20;1.90;;;1.08;;
84662;SDS011;74891;59.208;18.220;2024-02-16T12:33:51;1.50;;;1.02;;
84662;SDS011;74891;59.208;18.220;2024-02-16T12:36:22;1.75;;;0.98;;
84662;SDS011;74891;59.208;18.220;2024-02-16T12:38:48;0.90;;;0.80;;
84662;SDS011;74891;59.208;18.220;2024-02-16T12:41:14;1.83;;;0.90;;
84662;SDS011;74891;59.208;18.220;2024-02-16T12:43:40;1.30;;;0.80;;
84662;SDS011;74891;59.208;18.220;2024-02-16T12:46:06;0.75;;;0.65;;
84662;SDS011;74891;59.208;18.220;2024-02-16T12:48:37;1.15;;;0.85;;
84662;SDS011;74891;59.208;18.220;2024-02-16T12:51:06;1.85;;;1.10;;
84662;SDS011;74891;59.208;18.220;2024-02-16T12:53:50;1.92;;;1.00;;
84662;SDS011;74891;59.208;18.220;2024-02-16T12:56:16;2.45;;;1.27;;
84662;SDS011;74891;59.208;18.220;2024-02-16T12:58:42;1.23;;;0.88;;
84662;SDS011;74891;59.208;18.220;2024-02-16T13:01:10;1.85;;;0.93;;
84662;SDS011;74891;59.208;18.220;2024-02-16T13:03:39;1.83;;;0.90;;
84662;SDS011;74891;59.208;18.220;2024-02-16T13:06:10;1.73;;;0.93;;
84662;SDS011;74891;59.208;18.220;2024-02-16T13:08:39;2.22;;;0.98;;
84662;SDS011;74891;59.208;18.220;2024-02-16T13:13:54;1.63;;;0.90;;
84662;SDS011;74891;59.208;18.220;2024-02-16T13:18:47;1.65;;;0.95;;
84662;SDS011;74891;59.208;18.220;2024-02-16T13:21:16;2.20;;;1.30;;
84662;SDS011;74891;59.208;18.220;2024-02-16T13:23:44;2.42;;;1.27;;
84662;SDS011;74891;59.208;18.220;2024-02-16T13:26:15;2.08;;;1.10;;
84662;SDS011;74891;59.208;18.220;2024-02-16T13:31:23;1.52;;;0.98;;
84662;SDS011;74891;59.208;18.220;2024-02-16T13:33:49;2.10;;;1.05;;
84662;SDS011;74891;59.208;18.220;2024-02-16T13:36:16;1.30;;;0.98;;
84662;SDS011;74891;59.208;18.220;2024-02-16T13:38:49;1.23;;;1.00;;
84662;SDS011;74891;59.208;18.220;2024-02-16T13:41:15;2.17;;;0.80;;
84662;SDS011;74891;59.208;18.220;2024-02-16T13:43:43;0.90;;;0.65;;
84662;SDS011;74891;59.208;18.220;2024-02-16T13:46:09;1.30;;;0.80;;
84662;SDS011;74891;59.208;18.220;2024-02-16T13:48:35;1.48;;;0.80;;
84662;SDS011;74891;59.208;18.220;2024-02-16T13:51:09;1.80;;;0.60;;
84662;SDS011;74891;59.208;18.220;2024-02-16T13:53:43;0.93;;;0.73;;
84662;SDS011;74891;59.208;18.220;2024-02-16T13:56:48;1.00;;;0.63;;
84662;SDS011;74891;59.208;18.220;2024-02-16T13:59:14;0.90;;;0.57;;
84662;SDS011;74891;59.208;18.220;2024-02-16T14:01:43;0.95;;;0.60;;
84662;SDS011;74891;59.208;18.220;2024-02-16T14:04:19;1.08;;;0.70;;
84662;SDS011;74891;59.208;18.220;2024-02-16T14:06:46;0.85;;;0.60;;
84662;SDS011;74891;59.208;18.220;2024-02-16T14:09:13;0.73;;;0.50;;
84662;SDS011;74891;59.208;18.220;2024-02-16T14:11:39;0.85;;;0.47;;
84662;SDS011;74891;59.208;18.220;2024-02-16T14:14:14;0.95;;;0.45;;
84662;SDS011;74891;59.208;18.220;2024-02-16T14:19:10;0.60;;;0.43;;
84662;SDS011;74891;59.208;18.220;2024-02-16T14:21:36;0.60;;;0.47;;
84662;SDS011;74891;59.208;18.220;2024-02-16T14:24:17;0.70;;;0.40;;
84662;SDS011;74891;59.208;18.220;2024-02-16T14:26:45;0.60;;;0.40;;
84662;SDS011;74891;59.208;18.220;2024-02-16T14:29:11;0.90;;;0.40;;
84662;SDS011;74891;59.208;18.220;2024-02-16T14:31:37;0.40;;;0.20;;
84662;SDS011;74891;59.208;18.220;2024-02-16T14:34:02;0.73;;;0.40;;
84662;SDS011;74891;59.208;18.220;2024-02-16T14:36:45;0.55;;;0.40;;
84662;SDS011;74891;59.208;18.220;2024-02-16T14:39:15;0.50;;;0.30;;
84662;SDS011;74891;59.208;18.220;2024-02-16T14:41:50;0.40;;;0.30;;
84662;SDS011;74891;59.208;18.220;2024-02-16T14:44:16;0.70;;;0.50;;
84662;SDS011;74891;59.208;18.220;2024-02-16T14:46:41;0.60;;;0.38;;
84662;SDS011;74891;59.208;18.220;2024-02-16T14:49:10;0.88;;;0.52;;
84662;SDS011;74891;59.208;18.220;2024-02-16T14:51:40;1.13;;;0.50;;
84662;SDS011;74891;59.208;18.220;2024-02-16T14:54:11;0.65;;;0.50;;
84662;SDS011;74891;59.208;18.220;2024-02-16T14:56:37;1.00;;;0.68;;
84662;SDS011;74891;59.208;18.220;2024-02-16T14:59:03;1.13;;;0.50;;
84662;SDS011;74891;59.208;18.220;2024-02-16T15:01:32;1.48;;;0.80;;
84662;SDS011;74891;59.208;18.220;2024-02-16T15:04:09;1.23;;;0.82;;
84662;SDS011;74891;59.208;18.220;2024-02-16T15:06:37;1.00;;;0.73;;
84662;SDS011;74891;59.208;18.220;2024-02-16T15:09:12;0.82;;;0.60;;
84662;SDS011;74891;59.208;18.220;2024-02-16T15:11:45;2.10;;;1.10;;
84662;SDS011;74891;59.208;18.220;2024-02-16T15:14:13;2.45;;;1.20;;
84662;SDS011;74891;59.208;18.220;2024-02-16T15:16:39;1.80;;;0.90;;
84662;SDS011;74891;59.208;18.220;2024-02-16T15:19:23;3.40;;;1.20;;
84662;SDS011;74891;59.208;18.220;2024-02-16T15:21:49;2.75;;;1.50;;
84662;SDS011;74891;59.208;18.220;2024-02-16T15:24:23;2.22;;;1.40;;
84662;SDS011;74891;59.208;18.220;2024-02-16T15:26:53;2.45;;;1.25;;
84662;SDS011;74891;59.208;18.220;2024-02-16T15:29:19;2.13;;;1.30;;
84662;SDS011;74891;59.208;18.220;2024-02-16T15:31:44;2.67;;;1.60;;
84662;SDS011;74891;59.208;18.220;2024-02-16T15:34:12;2.03;;;1.20;;
84662;SDS011;74891;59.208;18.220;2024-02-16T15:36:46;2.13;;;1.33;;
84662;SDS011;74891;59.208;18.220;2024-02-16T15:39:13;3.25;;;1.23;;
84662;SDS011;74891;59.208;18.220;2024-02-16T15:41:39;2.13;;;1.08;;
84662;SDS011;74891;59.208;18.220;2024-02-16T15:44:10;2.75;;;1.42;;
84662;SDS011;74891;59.208;18.220;2024-02-16T15:46:37;3.22;;;1.40;;
84662;SDS011;74891;59.208;18.220;2024-02-16T15:49:24;3.20;;;1.63;;
84662;SDS011;74891;59.208;18.220;2024-02-16T15:51:50;2.97;;;1.40;;
84662;SDS011;74891;59.208;18.220;2024-02-16T15:54:19;4.72;;;1.70;;
84662;SDS011;74891;59.208;18.220;2024-02-16T15:56:47;3.65;;;1.95;;
84662;SDS011;74891;59.208;18.220;2024-02-16T15:59:17;4.07;;;1.85;;
84662;SDS011;74891;59.208;18.220;2024-02-16T16:01:48;3.13;;;1.83;;
84662;SDS011;74891;59.208;18.220;2024-02-16T16:04:16;5.55;;;2.20;;
84662;SDS011;74891;59.208;18.220;2024-02-16T16:07:00;5.50;;;2.70;;
84662;SDS011;74891;59.208;18.220;2024-02-16T16:09:25;8.15;;;2.60;;
84662;SDS011;74891;59.208;18.220;2024-02-16T16:11:53;5.88;;;2.97;;
84662;SDS011;74891;59.208;18.220;2024-02-16T16:14:28;8.65;;;2.85;;
84662;SDS011;74891;59.208;18.220;2024-02-16T16:16:56;9.10;;;3.33;;
84662;SDS011;74891;59.208;18.220;2024-02-16T16:19:21;12.88;;;4.40;;
84662;SDS011;74891;59.208;18.220;2024-02-16T16:21:48;11.55;;;4.53;;
84662;SDS011;74891;59.208;18.220;2024-02-16T16:24:13;17.23;;;5.25;;
84662;SDS011;74891;59.208;18.220;2024-02-16T16:26:42;15.77;;;5.40;;